Time,TemperatureF,DewpointF,PressureIn,WindDirection,WindDirectionDegrees,WindSpeedMPH,WindSpeedGustMPH,Humidity,HourlyPrecipIn,Conditions,Clouds,dailyrainin,SoftwareType,DateUTC
2013-06-20 00:04:00,79.3,72.0,29.94,SSE,167,0.0,5.0,78,0.00,,,0.00,meteohub,2013-06-20 05:04:00,
2013-06-20 00:16:00,79.3,72.3,29.94,SSE,157,3.0,6.0,79,0.00,,,0.00,meteohub,2013-06-20 05:16:00,
2013-06-20 00:22:00,79.3,72.3,29.94,SSE,153,4.0,6.0,79,0.00,,,0.00,meteohub,2013-06-20 05:22:00,
2013-06-20 00:37:00,79.2,72.9,29.94,SE,142,6.0,9.0,81,0.00,,,0.00,meteohub,2013-06-20 05:37:00,
2013-06-20 00:48:00,79.0,72.7,29.94,SSE,163,1.0,9.0,81,0.00,,,0.00,meteohub,2013-06-20 05:48:00,
2013-06-20 00:53:00,79.0,72.7,29.94,SSE,153,2.0,9.0,81,0.00,,,0.00,meteohub,2013-06-20 05:53:00,
2013-06-20 00:56:00,79.0,73.0,29.94,SSE,152,2.0,8.0,82,0.00,,,0.00,meteohub,2013-06-20 05:56:00,
2013-06-20 01:11:00,78.6,72.7,29.94,SE,142,4.0,10.0,82,0.00,,,0.00,meteohub,2013-06-20 06:11:00,
2013-06-20 01:27:00,78.3,72.7,29.93,SSE,152,1.0,7.0,83,0.00,,,0.00,meteohub,2013-06-20 06:27:00,
2013-06-20 01:32:00,78.3,72.7,29.93,SSE,153,1.0,7.0,83,0.00,,,0.00,meteohub,2013-06-20 06:32:00,
2013-06-20 01:40:00,78.1,72.5,29.93,SSE,147,4.0,7.0,83,0.00,,,0.00,meteohub,2013-06-20 06:40:00,
2013-06-20 01:54:00,77.9,72.3,29.93,SSE,160,2.0,8.0,83,0.00,,,0.00,meteohub,2013-06-20 06:54:00,
2013-06-20 02:09:00,77.9,72.3,29.93,SSE,152,1.0,7.0,83,0.00,,,0.00,meteohub,2013-06-20 07:09:00,
2013-06-20 02:16:00,77.7,72.1,29.93,SSE,150,4.0,6.0,83,0.00,,,0.00,meteohub,2013-06-20 07:16:00,
2013-06-20 02:21:00,77.7,72.1,29.93,SSE,152,6.0,6.0,83,0.00,,,0.00,meteohub,2013-06-20 07:21:00,
2013-06-20 02:27:00,77.5,72.3,29.93,SSE,151,2.0,7.0,84,0.00,,,0.00,meteohub,2013-06-20 07:27:00,
2013-06-20 02:32:00,77.5,72.3,29.93,SSE,149,2.0,7.0,84,0.00,,,0.00,meteohub,2013-06-20 07:32:00,
2013-06-20 02:42:00,77.4,72.1,29.93,SSE,153,6.0,7.0,84,0.00,,,0.00,meteohub,2013-06-20 07:42:00,
2013-06-20 03:02:00,77.2,72.3,29.91,SSE,153,3.0,8.0,85,0.00,,,0.00,meteohub,2013-06-20 08:02:00,
2013-06-20 03:07:00,77.0,72.1,29.91,SSE,163,7.0,8.0,85,0.00,,,0.00,meteohub,2013-06-20 08:07:00,
2013-06-20 03:16:00,76.8,72.0,29.91,SE,136,8.0,11.0,85,0.00,,,0.00,meteohub,2013-06-20 08:16:00,
2013-06-20 03:21:00,76.8,72.3,29.91,SE,140,4.0,11.0,86,0.00,,,0.00,meteohub,2013-06-20 08:21:00,
2013-06-20 03:34:00,76.6,72.1,29.91,SSE,154,9.0,10.0,86,0.00,,,0.00,meteohub,2013-06-20 08:34:00,
2013-06-20 03:47:00,76.6,72.1,29.91,SSE,155,1.0,10.0,86,0.00,,,0.00,meteohub,2013-06-20 08:47:00,
2013-06-20 03:52:00,76.6,72.5,29.91,SSE,153,5.0,9.0,87,0.00,,,0.00,meteohub,2013-06-20 08:52:00,
2013-06-20 04:02:00,76.6,72.5,29.91,SSE,162,4.0,9.0,87,0.00,,,0.00,meteohub,2013-06-20 09:02:00,
2013-06-20 04:26:00,76.5,72.3,29.91,South,170,2.0,9.0,87,0.00,,,0.00,meteohub,2013-06-20 09:26:00,
2013-06-20 04:37:00,76.3,72.5,29.91,SSE,165,3.0,10.0,88,0.00,,,0.00,meteohub,2013-06-20 09:37:00,
2013-06-20 04:42:00,76.3,72.5,29.91,SSE,167,2.0,10.0,88,0.00,,,0.00,meteohub,2013-06-20 09:42:00,
2013-06-20 04:51:00,76.3,72.5,29.91,SSE,152,3.0,8.0,88,0.00,,,0.00,meteohub,2013-06-20 09:51:00,
2013-06-20 05:00:00,76.3,72.1,29.91,South,182,4.0,8.0,87,0.00,,,0.00,meteohub,2013-06-20 10:00:00,
2013-06-20 05:07:00,76.3,72.1,29.91,South,169,2.0,9.0,87,0.00,,,0.00,meteohub,2013-06-20 10:07:00,
2013-06-20 05:12:00,76.3,72.1,29.91,South,173,3.0,9.0,87,0.00,,,0.00,meteohub,2013-06-20 10:12:00,
2013-06-20 05:19:00,76.3,72.1,29.92,SE,143,7.0,9.0,87,0.00,,,0.00,meteohub,2013-06-20 10:19:00,
2013-06-20 05:29:00,76.3,72.1,29.93,SSW,202,2.0,10.0,87,0.00,,,0.00,meteohub,2013-06-20 10:29:00,
2013-06-20 05:39:00,76.3,72.1,29.93,SSE,163,6.0,8.0,87,0.00,,,0.00,meteohub,2013-06-20 10:39:00,
2013-06-20 05:52:00,76.3,71.8,29.93,South,169,2.0,7.0,86,0.00,,,0.00,meteohub,2013-06-20 10:52:00,
2013-06-20 06:06:00,76.5,72.0,29.94,South,184,3.0,7.0,86,0.00,,,0.00,meteohub,2013-06-20 11:06:00,
2013-06-20 06:14:00,76.5,72.0,29.94,SSE,162,1.0,7.0,86,0.00,,,0.00,meteohub,2013-06-20 11:14:00,
2013-06-20 06:26:00,76.3,71.8,29.95,South,187,0.0,7.0,86,0.00,,,0.00,meteohub,2013-06-20 11:26:00,
2013-06-20 06:34:00,76.3,71.8,29.96,South,175,2.0,6.0,86,0.00,,,0.00,meteohub,2013-06-20 11:34:00,
2013-06-20 06:43:00,76.1,71.6,29.96,South,170,2.0,6.0,86,0.00,,,0.00,meteohub,2013-06-20 11:43:00,
2013-06-20 06:51:00,76.3,71.8,29.96,SSW,192,2.0,6.0,86,0.00,,,0.00,meteohub,2013-06-20 11:51:00,
2013-06-20 07:00:00,76.3,71.8,29.96,South,182,0.0,7.0,86,0.00,,,0.00,meteohub,2013-06-20 12:00:00,
2013-06-20 07:07:00,76.5,72.0,29.96,South,178,5.0,7.0,86,0.00,,,0.00,meteohub,2013-06-20 12:07:00,
2013-06-20 07:14:00,76.5,71.6,29.97,SW,217,5.0,6.0,85,0.00,,,0.00,meteohub,2013-06-20 12:14:00,
2013-06-20 07:27:00,76.8,72.0,29.97,South,189,7.0,8.0,85,0.00,,,0.00,meteohub,2013-06-20 12:27:00,
2013-06-20 07:39:00,77.4,72.1,29.98,SSW,207,5.0,7.0,84,0.00,,,0.00,meteohub,2013-06-20 12:39:00,
2013-06-20 07:45:00,77.5,72.0,29.98,SSW,201,6.0,10.0,83,0.00,,,0.00,meteohub,2013-06-20 12:45:00,
2013-06-20 07:51:00,77.7,72.1,29.98,South,182,5.0,10.0,83,0.00,,,0.00,meteohub,2013-06-20 12:51:00,
2013-06-20 07:57:00,77.9,72.3,29.99,SSW,195,2.0,10.0,83,0.00,,,0.00,meteohub,2013-06-20 12:57:00,
2013-06-20 08:14:00,78.4,72.1,29.99,SW,216,5.0,9.0,81,0.00,,,0.00,meteohub,2013-06-20 13:14:00,
2013-06-20 08:22:00,78.8,72.1,30.00,South,177,5.0,12.0,80,0.00,,,0.00,meteohub,2013-06-20 13:22:00,
2013-06-20 08:44:00,79.9,72.3,30.01,SSW,196,4.0,12.0,78,0.00,,,0.00,meteohub,2013-06-20 13:44:00,
2013-06-20 08:51:00,80.1,72.5,30.01,SW,219,5.0,12.0,78,0.00,,,0.00,meteohub,2013-06-20 13:51:00,
2013-06-20 09:03:00,80.6,72.0,30.01,WSW,238,5.0,13.0,75,0.00,,,0.00,meteohub,2013-06-20 14:03:00,
2013-06-20 09:10:00,81.0,72.0,30.01,South,181,2.0,13.0,74,0.00,,,0.00,meteohub,2013-06-20 14:10:00,
2013-06-20 09:22:00,81.7,71.8,30.01,SSW,211,7.0,12.0,72,0.00,,,0.00,meteohub,2013-06-20 14:22:00,
2013-06-20 09:30:00,82.0,72.1,30.02,SSE,157,3.0,12.0,72,0.00,,,0.00,meteohub,2013-06-20 14:30:00,
2013-06-20 09:40:00,82.8,72.0,30.02,SW,217,10.0,12.0,70,0.00,,,0.00,meteohub,2013-06-20 14:40:00,
2013-06-20 09:51:00,82.8,71.6,30.03,SW,221,6.0,15.0,69,0.00,,,0.00,meteohub,2013-06-20 14:51:00,
2013-06-20 10:03:00,83.3,71.2,30.03,SW,224,10.0,15.0,67,0.00,,,0.00,meteohub,2013-06-20 15:03:00,
2013-06-20 10:09:00,83.8,71.2,30.03,SSW,200,9.0,15.0,66,0.00,,,0.00,meteohub,2013-06-20 15:09:00,
2013-06-20 10:22:00,84.2,71.2,30.03,SW,221,7.0,15.0,65,0.00,,,0.00,meteohub,2013-06-20 15:22:00,
2013-06-20 10:37:00,84.7,70.7,30.03,SW,228,10.0,16.0,63,0.00,,,0.00,meteohub,2013-06-20 15:37:00,
2013-06-20 10:57:00,85.8,71.2,30.03,SW,225,8.0,13.0,62,0.00,,,0.00,meteohub,2013-06-20 15:57:00,
2013-06-20 11:19:00,87.1,72.0,30.03,SW,234,3.0,15.0,61,0.00,,,0.00,meteohub,2013-06-20 16:19:00,
2013-06-20 11:36:00,87.6,70.5,30.03,SE,146,4.0,13.0,57,0.00,,,0.00,meteohub,2013-06-20 16:36:00,
2013-06-20 11:45:00,88.3,70.2,30.03,SW,224,13.0,13.0,55,0.00,,,0.00,meteohub,2013-06-20 16:45:00,
2013-06-20 11:51:00,88.2,70.5,30.03,South,180,6.0,13.0,56,0.00,,,0.00,meteohub,2013-06-20 16:51:00,
2013-06-20 11:57:00,88.0,70.3,30.02,WSW,239,10.0,16.0,56,0.00,,,0.00,meteohub,2013-06-20 16:57:00,
2013-06-20 12:06:00,88.5,70.3,30.02,West,261,9.0,15.0,55,0.00,,,0.00,meteohub,2013-06-20 17:06:00,
2013-06-20 12:14:00,88.9,70.7,30.02,SW,221,6.0,19.0,55,0.00,,,0.00,meteohub,2013-06-20 17:14:00,
2013-06-20 12:21:00,89.1,71.8,30.02,SSW,194,3.0,13.0,57,0.00,,,0.00,meteohub,2013-06-20 17:21:00,
2013-06-20 12:27:00,89.6,70.2,30.02,South,178,5.0,13.0,53,0.00,,,0.00,meteohub,2013-06-20 17:27:00,
2013-06-20 12:36:00,90.0,70.5,30.02,SW,221,11.0,13.0,53,0.00,,,0.00,meteohub,2013-06-20 17:36:00,
2013-06-20 12:43:00,89.6,70.7,30.02,SSW,194,7.0,15.0,54,0.00,,,0.00,meteohub,2013-06-20 17:43:00,
2013-06-20 12:52:00,90.0,70.5,30.01,SSW,211,10.0,15.0,53,0.00,,,0.00,meteohub,2013-06-20 17:52:00,
2013-06-20 13:05:00,90.0,71.1,30.01,SSW,212,7.0,15.0,54,0.00,,,0.00,meteohub,2013-06-20 18:05:00,
2013-06-20 13:17:00,90.0,71.1,30.01,SSW,197,6.0,22.0,54,0.00,,,0.00,meteohub,2013-06-20 18:17:00,
2013-06-20 13:28:00,90.3,71.4,30.01,SSW,198,5.0,15.0,54,0.00,,,0.00,meteohub,2013-06-20 18:28:00,
2013-06-20 13:37:00,90.7,71.2,30.00,SW,223,9.0,17.0,53,0.00,,,0.00,meteohub,2013-06-20 18:37:00,
2013-06-20 13:42:00,90.9,71.4,30.00,SW,223,8.0,17.0,53,0.00,,,0.00,meteohub,2013-06-20 18:42:00,
2013-06-20 13:47:00,90.9,72.0,30.00,South,184,8.0,17.0,54,0.00,,,0.00,meteohub,2013-06-20 18:47:00,
2013-06-20 13:52:00,90.7,71.2,30.00,SSE,161,4.0,13.0,53,0.00,,,0.00,meteohub,2013-06-20 18:52:00,
2013-06-20 13:59:00,91.8,71.6,30.00,SW,219,4.0,13.0,52,0.00,,,0.00,meteohub,2013-06-20 18:59:00,
2013-06-20 14:20:00,92.1,71.4,29.99,SW,219,11.0,15.0,51,0.00,,,0.00,meteohub,2013-06-20 19:20:00,
2013-06-20 14:27:00,92.1,71.4,29.99,SW,219,7.0,18.0,51,0.00,,,0.00,meteohub,2013-06-20 19:27:00,
2013-06-20 14:35:00,92.5,71.1,29.98,South,175,4.0,13.0,50,0.00,,,0.00,meteohub,2013-06-20 19:35:00,
2013-06-20 14:47:00,92.3,70.3,29.98,SW,229,7.0,16.0,49,0.00,,,0.00,meteohub,2013-06-20 19:47:00,
2013-06-20 14:57:00,92.7,70.2,29.98,SSW,198,7.0,16.0,48,0.00,,,0.00,meteohub,2013-06-20 19:57:00,
2013-06-20 15:06:00,92.8,70.3,29.97,South,171,7.0,13.0,48,0.00,,,0.00,meteohub,2013-06-20 20:06:00,
2013-06-20 15:21:00,93.0,69.8,29.97,SSW,211,7.0,13.0,47,0.00,,,0.00,meteohub,2013-06-20 20:21:00,
2013-06-20 15:36:00,93.7,69.3,29.96,SSW,212,8.0,14.0,45,0.00,,,0.00,meteohub,2013-06-20 20:36:00,
2013-06-20 15:44:00,93.6,69.1,29.96,SSW,211,7.0,17.0,45,0.00,,,0.00,meteohub,2013-06-20 20:44:00,
2013-06-20 15:49:00,93.7,69.8,29.96,South,171,7.0,17.0,46,0.00,,,0.00,meteohub,2013-06-20 20:49:00,
2013-06-20 15:59:00,93.9,70.0,29.96,SSW,212,4.0,13.0,46,0.00,,,0.00,meteohub,2013-06-20 20:59:00,
2013-06-20 16:07:00,94.3,70.3,29.96,SW,219,7.0,18.0,46,0.00,,,0.00,meteohub,2013-06-20 21:07:00,
2013-06-20 16:17:00,94.5,69.8,29.96,SW,226,5.0,12.0,45,0.00,,,0.00,meteohub,2013-06-20 21:17:00,
2013-06-20 16:24:00,94.5,69.8,29.96,South,173,7.0,12.0,45,0.00,,,0.00,meteohub,2013-06-20 21:24:00,
2013-06-20 16:33:00,94.8,68.9,29.96,South,181,6.0,12.0,43,0.00,,,0.00,meteohub,2013-06-20 21:33:00,
2013-06-20 16:45:00,94.5,68.5,29.95,SW,217,7.0,15.0,43,0.00,,,0.00,meteohub,2013-06-20 21:45:00,
2013-06-20 16:52:00,94.5,68.5,29.95,South,170,5.0,15.0,43,0.00,,,0.00,meteohub,2013-06-20 21:52:00,
2013-06-20 17:02:00,94.6,68.0,29.94,SSW,200,7.0,15.0,42,0.00,,,0.00,meteohub,2013-06-20 22:02:00,
2013-06-20 17:19:00,94.6,68.0,29.94,SSW,205,4.0,16.0,42,0.00,,,0.00,meteohub,2013-06-20 22:19:00,
2013-06-20 17:32:00,94.6,68.0,29.94,SSW,206,7.0,16.0,42,0.00,,,0.00,meteohub,2013-06-20 22:32:00,
2013-06-20 17:42:00,94.5,67.8,29.93,SSW,196,10.0,12.0,42,0.00,,,0.00,meteohub,2013-06-20 22:42:00,
2013-06-20 17:47:00,94.6,68.0,29.93,SW,233,8.0,13.0,42,0.00,,,0.00,meteohub,2013-06-20 22:47:00,
2013-06-20 17:52:00,94.5,67.8,29.93,SSW,213,8.0,13.0,42,0.00,,,0.00,meteohub,2013-06-20 22:52:00,
2013-06-20 18:07:00,94.6,68.7,29.93,SSE,153,6.0,11.0,43,0.00,,,0.00,meteohub,2013-06-20 23:07:00,
2013-06-20 18:12:00,94.8,69.4,29.93,SSE,165,3.0,10.0,44,0.00,,,0.00,meteohub,2013-06-20 23:12:00,
2013-06-20 18:22:00,94.6,69.3,29.92,South,190,11.0,11.0,44,0.00,,,0.00,meteohub,2013-06-20 23:22:00,
2013-06-20 18:34:00,94.3,69.1,29.92,South,176,5.0,11.0,44,0.00,,,0.00,meteohub,2013-06-20 23:34:00,
2013-06-20 18:42:00,93.9,69.3,29.92,South,183,7.0,10.0,45,0.00,,,0.00,meteohub,2013-06-20 23:42:00,
2013-06-20 18:52:00,93.6,69.1,29.92,SSE,168,4.0,10.0,45,0.00,,,0.00,meteohub,2013-06-20 23:52:00,
2013-06-20 19:04:00,93.2,68.7,29.92,South,188,3.0,11.0,45,0.00,,,0.00,meteohub,2013-06-21 00:04:00,
2013-06-20 19:12:00,93.0,69.3,29.92,SSW,201,6.0,8.0,46,0.00,,,0.00,meteohub,2013-06-21 00:12:00,
2013-06-20 19:41:00,91.6,69.8,29.92,South,171,2.0,5.0,49,0.00,,,0.00,meteohub,2013-06-21 00:41:00,
2013-06-20 19:51:00,91.0,69.3,29.92,SSE,167,4.0,7.0,49,0.00,,,0.00,meteohub,2013-06-21 00:51:00,
2013-06-20 20:10:00,90.3,69.1,29.92,SSE,163,4.0,6.0,50,0.00,,,0.00,meteohub,2013-06-21 01:10:00,
2013-06-20 20:17:00,90.0,69.4,29.92,SSE,150,1.0,7.0,51,0.00,,,0.00,meteohub,2013-06-21 01:17:00,
2013-06-20 20:22:00,89.8,69.3,29.92,SSE,161,0.0,7.0,51,0.00,,,0.00,meteohub,2013-06-21 01:22:00,
2013-06-20 20:28:00,89.4,69.4,29.92,SSE,160,5.0,8.0,52,0.00,,,0.00,meteohub,2013-06-21 01:28:00,
2013-06-20 20:35:00,89.2,69.3,29.92,SSE,167,4.0,8.0,52,0.00,,,0.00,meteohub,2013-06-21 01:35:00,
2013-06-20 20:40:00,89.1,69.1,29.92,SSE,148,3.0,8.0,52,0.00,,,0.00,meteohub,2013-06-21 01:40:00,
2013-06-20 20:50:00,88.3,69.1,29.93,SSE,160,7.0,7.0,53,0.00,,,0.00,meteohub,2013-06-21 01:50:00,
2013-06-20 21:01:00,87.6,69.4,29.93,SSE,163,2.0,10.0,55,0.00,,,0.00,meteohub,2013-06-21 02:01:00,
2013-06-20 21:06:00,87.4,69.3,29.93,South,175,5.0,10.0,55,0.00,,,0.00,meteohub,2013-06-21 02:06:00,
2013-06-20 21:13:00,87.3,69.6,29.93,SSE,157,5.0,10.0,56,0.00,,,0.00,meteohub,2013-06-21 02:13:00,
2013-06-20 21:21:00,86.9,69.8,29.93,SSE,161,3.0,9.0,57,0.00,,,0.00,meteohub,2013-06-21 02:21:00,
2013-06-20 21:28:00,86.5,70.0,29.93,SSE,162,5.0,9.0,58,0.00,,,0.00,meteohub,2013-06-21 02:28:00,
2013-06-20 21:42:00,86.2,70.2,29.94,SSE,161,2.0,9.0,59,0.00,,,0.00,meteohub,2013-06-21 02:42:00,
2013-06-20 21:49:00,85.8,69.8,29.94,SSE,164,2.0,9.0,59,0.00,,,0.00,meteohub,2013-06-21 02:49:00,
2013-06-20 22:02:00,85.5,70.0,29.94,SSE,162,1.0,10.0,60,0.00,,,0.00,meteohub,2013-06-21 03:02:00,
2013-06-20 22:15:00,84.7,69.8,29.96,South,169,5.0,8.0,61,0.00,,,0.00,meteohub,2013-06-21 03:15:00,
2013-06-20 22:29:00,84.4,70.0,29.96,SSE,163,3.0,8.0,62,0.00,,,0.00,meteohub,2013-06-21 03:29:00,
2013-06-20 22:40:00,84.0,70.0,29.97,SSE,161,5.0,6.0,63,0.00,,,0.00,meteohub,2013-06-21 03:40:00,
2013-06-20 22:47:00,83.8,70.0,29.97,South,169,2.0,6.0,63,0.00,,,0.00,meteohub,2013-06-21 03:47:00,
2013-06-20 22:57:00,83.7,69.8,29.98,SSE,165,4.0,7.0,63,0.00,,,0.00,meteohub,2013-06-21 03:57:00,
2013-06-20 23:03:00,83.5,69.6,29.98,SSE,165,5.0,7.0,63,0.00,,,0.00,meteohub,2013-06-21 04:03:00,
2013-06-20 23:15:00,83.1,69.3,29.98,SSE,167,3.0,7.0,63,0.00,,,0.00,meteohub,2013-06-21 04:15:00,
2013-06-20 23:22:00,82.9,69.1,29.98,SSE,163,4.0,8.0,63,0.00,,,0.00,meteohub,2013-06-21 04:22:00,
2013-06-20 23:27:00,82.9,69.4,29.98,SSE,167,6.0,8.0,64,0.00,,,0.00,meteohub,2013-06-21 04:27:00,
2013-06-20 23:40:00,82.6,69.1,29.98,SSE,168,5.0,8.0,64,0.00,,,0.00,meteohub,2013-06-21 04:40:00,
2013-06-20 23:47:00,82.6,69.6,29.98,SSE,153,3.0,11.0,65,0.00,,,0.00,meteohub,2013-06-21 04:47:00,
2013-06-20 23:55:00,82.4,70.0,29.98,South,184,4.0,8.0,66,0.00,,,0.00,meteohub,2013-06-21 04:55:00,